Ault Field, Washington
Current Conditions -  °F | °C
As of 6:56 AM on Friday 24 Oct 2014 (Local Time) from KNUW Reporting Station
Broken Clouds Broken Clouds  
Wind Chill: 50°   Ceiling: 9500
Heat Index: 50°   Visibility: 10mi
Dew Point: 44°   Wind: 8mph
Humidity: 80%   Direction: 110°ESE
Pressure: 30.03"   Gusts: NA
Location:  48.3182°N, 122.634°W
Report Text: KNUW 241356Z 11007KT 10SM SCT017 SCT042 BKN095 BKN250 10/07 A3003 RMK AO2 SLP174 T01000067 $
Loading
Personal Weather Stations






























Interactive Weather Map New forecast layout! Learn more

10-Day Weather Forecast

Advertisements
Track Severe Weather on mobile